sensor_id;sensor_type;location;lat;lon;timestamp;pressure;altitude;pressure_sealevel;temperature;humidity
25526;BME280;13424;48.424;11.258;2023-05-22T00:02:07;95213.63;;;19.46;67.16
25526;BME280;13424;48.424;11.258;2023-05-22T00:04:33;95212.66;;;20.00;65.91
25526;BME280;13424;48.424;11.258;2023-05-22T00:06:59;95208.13;;;19.73;66.34
25526;BME280;13424;48.424;11.258;2023-05-22T00:09:25;95208.44;;;19.72;66.75
25526;BME280;13424;48.424;11.258;2023-05-22T00:11:51;95204.28;;;19.52;67.43
25526;BME280;13424;48.424;11.258;2023-05-22T00:14:17;95207.41;;;19.59;67.03
25526;BME280;13424;48.424;11.258;2023-05-22T00:16:43;95202.50;;;19.61;67.49
25526;BME280;13424;48.424;11.258;2023-05-22T00:22:44;95207.41;;;19.59;66.66
25526;BME280;13424;48.424;11.258;2023-05-22T00:25:10;95206.19;;;19.88;66.12
25526;BME280;13424;48.424;11.258;2023-05-22T00:27:36;95204.94;;;19.71;66.66
25526;BME280;13424;48.424;11.258;2023-05-22T00:30:03;95213.19;;;19.89;66.15
25526;BME280;13424;48.424;11.258;2023-05-22T00:32:29;95213.69;;;19.68;66.82
25526;BME280;13424;48.424;11.258;2023-05-22T00:34:54;95212.69;;;18.87;68.72
25526;BME280;13424;48.424;11.258;2023-05-22T00:37:20;95210.28;;;18.58;69.39
25526;BME280;13424;48.424;11.258;2023-05-22T00:43:14;95206.63;;;18.81;69.45
25526;BME280;13424;48.424;11.258;2023-05-22T00:45:41;95209.66;;;18.47;70.34
25526;BME280;13424;48.424;11.258;2023-05-22T00:48:13;95199.97;;;18.60;70.16
25526;BME280;13424;48.424;11.258;2023-05-22T00:50:41;95202.97;;;18.58;70.30
25526;BME280;13424;48.424;11.258;2023-05-22T00:53:07;95193.97;;;18.63;69.90
25526;BME280;13424;48.424;11.258;2023-05-22T00:55:33;95199.72;;;18.75;69.39
25526;BME280;13424;48.424;11.258;2023-05-22T00:57:59;95200.47;;;19.03;68.60
25526;BME280;13424;48.424;11.258;2023-05-22T01:00:26;95196.31;;;18.97;68.61
25526;BME280;13424;48.424;11.258;2023-05-22T01:02:52;95193.06;;;18.95;68.61
25526;BME280;13424;48.424;11.258;2023-05-22T01:05:18;95203.66;;;19.19;67.80
25526;BME280;13424;48.424;11.258;2023-05-22T01:07:44;95212.88;;;19.18;67.97
25526;BME280;13424;48.424;11.258;2023-05-22T01:10:10;95207.97;;;19.20;67.69
25526;BME280;13424;48.424;11.258;2023-05-22T01:18:59;95210.34;;;18.39;69.94
25526;BME280;13424;48.424;11.258;2023-05-22T01:21:42;95212.97;;;18.58;69.74
25526;BME280;13424;48.424;11.258;2023-05-22T01:27:54;95214.28;;;18.60;70.25
25526;BME280;13424;48.424;11.258;2023-05-22T01:30:43;95212.44;;;18.56;69.85
25526;BME280;13424;48.424;11.258;2023-05-22T01:37:19;95209.75;;;18.56;69.46
25526;BME280;13424;48.424;11.258;2023-05-22T01:39:47;95194.66;;;18.55;69.45
25526;BME280;13424;48.424;11.258;2023-05-22T01:42:14;95205.50;;;18.68;69.29
25526;BME280;13424;48.424;11.258;2023-05-22T01:44:40;95204.13;;;18.38;69.91
25526;BME280;13424;48.424;11.258;2023-05-22T01:47:06;95207.72;;;18.66;69.44
25526;BME280;13424;48.424;11.258;2023-05-22T01:49:33;95211.31;;;18.76;69.00
25526;BME280;13424;48.424;11.258;2023-05-22T01:54:50;95221.50;;;18.19;69.31
25526;BME280;13424;48.424;11.258;2023-05-22T01:57:26;95229.94;;;17.98;70.03
25526;BME280;13424;48.424;11.258;2023-05-22T02:00:03;95235.25;;;17.71;70.72
25526;BME280;13424;48.424;11.258;2023-05-22T02:02:44;95239.44;;;17.39;72.17
25526;BME280;13424;48.424;11.258;2023-05-22T02:05:12;95238.84;;;17.42;72.38
25526;BME280;13424;48.424;11.258;2023-05-22T02:07:40;95239.50;;;17.34;72.71
25526;BME280;13424;48.424;11.258;2023-05-22T02:10:09;95238.44;;;17.54;71.87
25526;BME280;13424;48.424;11.258;2023-05-22T02:12:37;95230.47;;;17.44;72.28
25526;BME280;13424;48.424;11.258;2023-05-22T02:15:04;95230.97;;;17.27;72.54
25526;BME280;13424;48.424;11.258;2023-05-22T02:17:38;95235.34;;;17.23;72.64
25526;BME280;13424;48.424;11.258;2023-05-22T02:20:10;95228.78;;;16.86;73.84
25526;BME280;13424;48.424;11.258;2023-05-22T02:22:45;95229.00;;;16.90;73.62
25526;BME280;13424;48.424;11.258;2023-05-22T02:25:13;95229.19;;;16.98;73.52
25526;BME280;13424;48.424;11.258;2023-05-22T02:27:47;95225.41;;;16.99;73.42
25526;BME280;13424;48.424;11.258;2023-05-22T02:30:14;95232.31;;;17.06;73.18
25526;BME280;13424;48.424;11.258;2023-05-22T02:32:41;95228.97;;;16.71;73.61
25526;BME280;13424;48.424;11.258;2023-05-22T02:35:08;95224.22;;;16.87;73.22
25526;BME280;13424;48.424;11.258;2023-05-22T02:37:34;95229.38;;;16.83;73.05
25526;BME280;13424;48.424;11.258;2023-05-22T02:40:00;95228.47;;;16.64;73.57
25526;BME280;13424;48.424;11.258;2023-05-22T02:42:27;95228.13;;;16.46;74.35
25526;BME280;13424;48.424;11.258;2023-05-22T02:44:53;95224.31;;;16.53;74.19
25526;BME280;13424;48.424;11.258;2023-05-22T02:47:28;95226.56;;;16.69;73.69
25526;BME280;13424;48.424;11.258;2023-05-22T02:49:54;95229.06;;;16.61;73.62
25526;BME280;13424;48.424;11.258;2023-05-22T02:52:23;95223.34;;;16.67;74.40
25526;BME280;13424;48.424;11.258;2023-05-22T02:54:49;95223.00;;;16.74;74.27
25526;BME280;13424;48.424;11.258;2023-05-22T03:00:50;95217.16;;;16.67;74.26
25526;BME280;13424;48.424;11.258;2023-05-22T03:03:17;95225.50;;;16.65;74.80
25526;BME280;13424;48.424;11.258;2023-05-22T03:05:43;95228.00;;;16.57;74.72
25526;BME280;13424;48.424;11.258;2023-05-22T03:08:11;95223.84;;;16.45;74.74
25526;BME280;13424;48.424;11.258;2023-05-22T03:10:37;95218.09;;;16.28;75.55
25526;BME280;13424;48.424;11.258;2023-05-22T03:13:03;95224.00;;;16.30;74.86
25526;BME280;13424;48.424;11.258;2023-05-22T03:15:29;95230.59;;;16.14;76.03
25526;BME280;13424;48.424;11.258;2023-05-22T03:18:00;95225.66;;;15.97;77.19
25526;BME280;13424;48.424;11.258;2023-05-22T03:20:26;95228.41;;;16.21;75.72
25526;BME280;13424;48.424;11.258;2023-05-22T03:22:52;95225.59;;;16.31;75.55
25526;BME280;13424;48.424;11.258;2023-05-22T03:25:18;95225.13;;;16.24;75.19
25526;BME280;13424;48.424;11.258;2023-05-22T03:27:46;95234.19;;;16.33;75.04
25526;BME280;13424;48.424;11.258;2023-05-22T03:30:12;95232.22;;;16.15;75.97
25526;BME280;13424;48.424;11.258;2023-05-22T03:32:47;95225.13;;;16.24;74.91
25526;BME280;13424;48.424;11.258;2023-05-22T03:35:13;95224.16;;;16.39;75.23
25526;BME280;13424;48.424;11.258;2023-05-22T03:37:47;95228.25;;;16.36;75.57
25526;BME280;13424;48.424;11.258;2023-05-22T03:40:14;95228.44;;;16.45;75.25
25526;BME280;13424;48.424;11.258;2023-05-22T03:42:40;95228.91;;;16.23;75.18
25526;BME280;13424;48.424;11.258;2023-05-22T03:45:06;95228.13;;;16.17;75.51
25526;BME280;13424;48.424;11.258;2023-05-22T03:47:32;95228.69;;;16.19;75.47
25526;BME280;13424;48.424;11.258;2023-05-22T03:49:58;95226.25;;;16.18;75.46
25526;BME280;13424;48.424;11.258;2023-05-22T03:52:24;95232.44;;;16.18;75.46
25526;BME280;13424;48.424;11.258;2023-05-22T03:54:53;95235.03;;;16.00;76.30
25526;BME280;13424;48.424;11.258;2023-05-22T03:57:18;95236.31;;;16.07;76.12
25526;BME280;13424;48.424;11.258;2023-05-22T03:59:45;95239.34;;;16.30;75.27
25526;BME280;13424;48.424;11.258;2023-05-22T04:02:11;95244.81;;;16.19;75.07
25526;BME280;13424;48.424;11.258;2023-05-22T04:04:37;95240.59;;;16.08;75.52
25526;BME280;13424;48.424;11.258;2023-05-22T04:07:06;95237.31;;;16.16;75.48
25526;BME280;13424;48.424;11.258;2023-05-22T04:09:34;95240.44;;;15.95;76.44
25526;BME280;13424;48.424;11.258;2023-05-22T04:12:01;95243.31;;;15.74;76.96
25526;BME280;13424;48.424;11.258;2023-05-22T04:14:28;95245.00;;;15.55;77.26
25526;BME280;13424;48.424;11.258;2023-05-22T04:16:53;95251.03;;;15.42;77.71
25526;BME280;13424;48.424;11.258;2023-05-22T04:19:19;95251.97;;;15.66;76.84
25526;BME280;13424;48.424;11.258;2023-05-22T04:21:47;95245.78;;;16.00;75.97
25526;BME280;13424;48.424;11.258;2023-05-22T04:24:13;95252.88;;;15.90;76.25
25526;BME280;13424;48.424;11.258;2023-05-22T04:26:39;95246.38;;;15.97;76.71
25526;BME280;13424;48.424;11.258;2023-05-22T04:29:05;95250.53;;;16.13;76.38
25526;BME280;13424;48.424;11.258;2023-05-22T04:31:38;95257.69;;;16.52;75.40
25526;BME280;13424;48.424;11.258;2023-05-22T04:34:04;95254.25;;;16.75;74.25
25526;BME280;13424;48.424;11.258;2023-05-22T04:36:30;95263.94;;;16.47;75.10
25526;BME280;13424;48.424;11.258;2023-05-22T04:42:23;95265.28;;;16.97;74.98
25526;BME280;13424;48.424;11.258;2023-05-22T04:44:50;95265.41;;;16.87;74.68
25526;BME280;13424;48.424;11.258;2023-05-22T04:47:18;95255.91;;;17.14;74.43
25526;BME280;13424;48.424;11.258;2023-05-22T04:49:45;95261.84;;;17.16;74.53
25526;BME280;13424;48.424;11.258;2023-05-22T04:52:11;95259.97;;;17.35;74.32
25526;BME280;13424;48.424;11.258;2023-05-22T04:54:37;95264.34;;;17.31;74.63
25526;BME280;13424;48.424;11.258;2023-05-22T04:57:03;95264.41;;;17.45;74.12
25526;BME280;13424;48.424;11.258;2023-05-22T04:59:35;95267.41;;;17.24;75.49
25526;BME280;13424;48.424;11.258;2023-05-22T05:02:04;95257.34;;;17.30;74.79
25526;BME280;13424;48.424;11.258;2023-05-22T05:04:30;95256.25;;;17.50;73.92
25526;BME280;13424;48.424;11.258;2023-05-22T05:11:25;95270.25;;;18.55;71.23
25526;BME280;13424;48.424;11.258;2023-05-22T05:13:51;95263.03;;;19.10;69.61
25526;BME280;13424;48.424;11.258;2023-05-22T05:16:17;95268.66;;;18.73;70.84
25526;BME280;13424;48.424;11.258;2023-05-22T05:18:44;95266.31;;;18.80;70.92
25526;BME280;13424;48.424;11.258;2023-05-22T05:21:11;95265.75;;;18.83;71.33
25526;BME280;13424;48.424;11.258;2023-05-22T05:23:37;95261.94;;;18.98;70.94
25526;BME280;13424;48.424;11.258;2023-05-22T05:26:03;95260.44;;;19.05;70.51
25526;BME280;13424;48.424;11.258;2023-05-22T05:28:29;95266.22;;;19.40;69.76
25526;BME280;13424;48.424;11.258;2023-05-22T05:30:55;95272.44;;;20.35;66.74
25526;BME280;13424;48.424;11.258;2023-05-22T05:33:45;95270.28;;;21.16;64.06
25526;BME280;13424;48.424;11.258;2023-05-22T05:36:18;95266.38;;;20.91;65.03
25526;BME280;13424;48.424;11.258;2023-05-22T05:38:45;95271.66;;;21.28;64.38
25526;BME280;13424;48.424;11.258;2023-05-22T05:41:12;95271.25;;;20.72;65.62
25526;BME280;13424;48.424;11.258;2023-05-22T05:43:40;95276.25;;;20.12;67.49
25526;BME280;13424;48.424;11.258;2023-05-22T05:46:08;95285.38;;;20.16;67.57
25526;BME280;13424;48.424;11.258;2023-05-22T05:48:34;95275.44;;;19.89;68.85
25526;BME280;13424;48.424;11.258;2023-05-22T05:51:00;95274.66;;;19.74;69.25
25526;BME280;13424;48.424;11.258;2023-05-22T05:53:30;95279.72;;;19.67;69.68
25526;BME280;13424;48.424;11.258;2023-05-22T05:55:58;95277.50;;;19.56;70.85
25526;BME280;13424;48.424;11.258;2023-05-22T05:58:27;95286.88;;;19.86;69.58
25526;BME280;13424;48.424;11.258;2023-05-22T06:01:06;95290.34;;;20.22;68.46
25526;BME280;13424;48.424;11.258;2023-05-22T06:03:32;95298.53;;;20.31;67.91
25526;BME280;13424;48.424;11.258;2023-05-22T06:06:04;95295.69;;;20.36;67.58
25526;BME280;13424;48.424;11.258;2023-05-22T06:08:51;95296.63;;;20.09;68.25
25526;BME280;13424;48.424;11.258;2023-05-22T06:11:26;95301.84;;;20.05;69.17
25526;BME280;13424;48.424;11.258;2023-05-22T06:13:53;95303.88;;;20.00;68.26
25526;BME280;13424;48.424;11.258;2023-05-22T06:16:19;95299.28;;;20.45;67.93
25526;BME280;13424;48.424;11.258;2023-05-22T06:18:45;95299.72;;;21.01;66.47
25526;BME280;13424;48.424;11.258;2023-05-22T06:21:11;95296.78;;;20.49;67.13
25526;BME280;13424;48.424;11.258;2023-05-22T06:23:37;95304.50;;;20.19;67.31
25526;BME280;13424;48.424;11.258;2023-05-22T06:26:03;95307.81;;;20.61;67.05
25526;BME280;13424;48.424;11.258;2023-05-22T06:28:30;95298.94;;;20.69;68.07
25526;BME280;13424;48.424;11.258;2023-05-22T06:30:58;95299.53;;;20.57;68.65
25526;BME280;13424;48.424;11.258;2023-05-22T06:33:26;95301.84;;;21.04;66.91
25526;BME280;13424;48.424;11.258;2023-05-22T06:35:52;95301.44;;;20.57;68.32
25526;BME280;13424;48.424;11.258;2023-05-22T06:38:18;95295.97;;;20.48;69.18
25526;BME280;13424;48.424;11.258;2023-05-22T06:40:44;95295.22;;;20.87;68.15
25526;BME280;13424;48.424;11.258;2023-05-22T06:43:15;95294.56;;;21.87;65.11
25526;BME280;13424;48.424;11.258;2023-05-22T06:45:49;95302.22;;;21.19;67.86
25526;BME280;13424;48.424;11.258;2023-05-22T06:48:34;95307.28;;;21.43;67.13
25526;BME280;13424;48.424;11.258;2023-05-22T06:51:08;95298.94;;;21.31;68.40
25526;BME280;13424;48.424;11.258;2023-05-22T06:53:38;95298.41;;;22.03;66.10
25526;BME280;13424;48.424;11.258;2023-05-22T06:56:09;95299.88;;;22.18;66.80
25526;BME280;13424;48.424;11.258;2023-05-22T06:59:13;95300.03;;;22.39;64.40
25526;BME280;13424;48.424;11.258;2023-05-22T07:01:45;95293.66;;;22.18;66.24
25526;BME280;13424;48.424;11.258;2023-05-22T07:04:14;95302.59;;;22.44;65.31
25526;BME280;13424;48.424;11.258;2023-05-22T07:06:54;95303.56;;;22.14;65.45
25526;BME280;13424;48.424;11.258;2023-05-22T07:09:21;95311.84;;;22.61;65.93
25526;BME280;13424;48.424;11.258;2023-05-22T07:11:48;95307.38;;;22.30;66.66
25526;BME280;13424;48.424;11.258;2023-05-22T07:14:15;95305.75;;;22.64;64.59
25526;BME280;13424;48.424;11.258;2023-05-22T07:16:42;95306.72;;;22.42;65.70
25526;BME280;13424;48.424;11.258;2023-05-22T07:19:08;95304.81;;;22.42;65.93
25526;BME280;13424;48.424;11.258;2023-05-22T07:21:36;95305.16;;;22.15;65.66
25526;BME280;13424;48.424;11.258;2023-05-22T07:24:03;95314.41;;;22.48;65.32
25526;BME280;13424;48.424;11.258;2023-05-22T07:26:35;95315.84;;;23.19;64.47
25526;BME280;13424;48.424;11.258;2023-05-22T07:29:05;95316.00;;;23.13;63.78
25526;BME280;13424;48.424;11.258;2023-05-22T07:31:31;95318.72;;;23.13;64.28
25526;BME280;13424;48.424;11.258;2023-05-22T07:34:00;95318.34;;;22.94;64.92
25526;BME280;13424;48.424;11.258;2023-05-22T07:36:28;95315.13;;;23.39;63.16
25526;BME280;13424;48.424;11.258;2023-05-22T07:38:59;95321.72;;;23.67;63.77
25526;BME280;13424;48.424;11.258;2023-05-22T07:41:25;95317.22;;;23.33;63.51
25526;BME280;13424;48.424;11.258;2023-05-22T07:43:54;95324.72;;;23.75;63.79
25526;BME280;13424;48.424;11.258;2023-05-22T07:46:25;95325.31;;;23.80;64.26
25526;BME280;13424;48.424;11.258;2023-05-22T07:49:07;95323.38;;;23.51;62.92
25526;BME280;13424;48.424;11.258;2023-05-22T07:51:35;95323.94;;;23.95;62.54
25526;BME280;13424;48.424;11.258;2023-05-22T07:54:01;95326.41;;;24.09;62.56
25526;BME280;13424;48.424;11.258;2023-05-22T07:56:28;95321.22;;;24.58;61.77
25526;BME280;13424;48.424;11.258;2023-05-22T07:58:55;95326.53;;;24.87;59.71
25526;BME280;13424;48.424;11.258;2023-05-22T08:01:21;95322.66;;;24.76;60.35
25526;BME280;13424;48.424;11.258;2023-05-22T08:03:47;95325.81;;;25.11;61.79
25526;BME280;13424;48.424;11.258;2023-05-22T08:06:13;95323.88;;;25.12;60.67
25526;BME280;13424;48.424;11.258;2023-05-22T08:08:40;95323.81;;;25.57;59.25
25526;BME280;13424;48.424;11.258;2023-05-22T08:11:06;95329.94;;;24.84;60.35
25526;BME280;13424;48.424;11.258;2023-05-22T08:13:32;95321.25;;;25.03;60.43
25526;BME280;13424;48.424;11.258;2023-05-22T08:15:59;95322.06;;;25.03;59.73
25526;BME280;13424;48.424;11.258;2023-05-22T08:18:25;95323.06;;;24.24;60.94
25526;BME280;13424;48.424;11.258;2023-05-22T08:20:52;95326.69;;;23.95;61.89
25526;BME280;13424;48.424;11.258;2023-05-22T08:23:18;95321.94;;;24.34;60.17
25526;BME280;13424;48.424;11.258;2023-05-22T08:25:44;95318.66;;;24.19;60.85
25526;BME280;13424;48.424;11.258;2023-05-22T08:28:10;95322.28;;;24.23;60.37
25526;BME280;13424;48.424;11.258;2023-05-22T08:30:36;95319.50;;;24.53;60.00
25526;BME280;13424;48.424;11.258;2023-05-22T08:33:02;95316.81;;;23.82;62.39
25526;BME280;13424;48.424;11.258;2023-05-22T08:35:28;95316.63;;;23.57;61.46
25526;BME280;13424;48.424;11.258;2023-05-22T08:37:54;95319.69;;;25.14;59.33
25526;BME280;13424;48.424;11.258;2023-05-22T08:40:20;95316.31;;;24.51;61.28
25526;BME280;13424;48.424;11.258;2023-05-22T08:42:46;95310.66;;;22.79;63.26
25526;BME280;13424;48.424;11.258;2023-05-22T08:45:12;95318.16;;;23.97;60.85
25526;BME280;13424;48.424;11.258;2023-05-22T08:47:40;95320.03;;;24.79;60.30
25526;BME280;13424;48.424;11.258;2023-05-22T08:50:09;95311.31;;;25.56;57.73
25526;BME280;13424;48.424;11.258;2023-05-22T08:52:50;95317.19;;;26.07;56.67
25526;BME280;13424;48.424;11.258;2023-05-22T08:55:54;95322.44;;;25.51;58.40
25526;BME280;13424;48.424;11.258;2023-05-22T08:58:20;95324.72;;;25.37;58.32
25526;BME280;13424;48.424;11.258;2023-05-22T09:00:47;95325.53;;;25.37;57.63
25526;BME280;13424;48.424;11.258;2023-05-22T09:03:13;95317.56;;;25.69;56.78
25526;BME280;13424;48.424;11.258;2023-05-22T09:05:40;95319.00;;;25.05;57.76
25526;BME280;13424;48.424;11.258;2023-05-22T09:08:08;95314.13;;;25.23;63.06
25526;BME280;13424;48.424;11.258;2023-05-22T09:10:34;95315.50;;;25.90;59.27
25526;BME280;13424;48.424;11.258;2023-05-22T09:13:04;95320.72;;;25.58;58.52
25526;BME280;13424;48.424;11.258;2023-05-22T09:16:09;95317.53;;;26.05;55.89
25526;BME280;13424;48.424;11.258;2023-05-22T09:18:37;95321.31;;;25.88;58.93
25526;BME280;13424;48.424;11.258;2023-05-22T09:21:04;95321.53;;;26.36;56.17
25526;BME280;13424;48.424;11.258;2023-05-22T09:23:30;95321.53;;;25.96;56.46
25526;BME280;13424;48.424;11.258;2023-05-22T09:25:58;95322.41;;;24.48;55.35
25526;BME280;13424;48.424;11.258;2023-05-22T09:28:24;95328.94;;;26.35;53.73
25526;BME280;13424;48.424;11.258;2023-05-22T09:31:31;95319.72;;;26.00;54.89
25526;BME280;13424;48.424;11.258;2023-05-22T09:34:03;95330.19;;;27.06;54.90
25526;BME280;13424;48.424;11.258;2023-05-22T09:36:30;95323.53;;;26.23;55.49
25526;BME280;13424;48.424;11.258;2023-05-22T09:38:59;95318.41;;;26.62;55.46
25526;BME280;13424;48.424;11.258;2023-05-22T09:41:27;95319.81;;;26.56;52.90
25526;BME280;13424;48.424;11.258;2023-05-22T09:43:55;95327.72;;;27.48;53.32
25526;BME280;13424;48.424;11.258;2023-05-22T09:46:20;95323.97;;;26.25;56.13
25526;BME280;13424;48.424;11.258;2023-05-22T09:48:52;95323.94;;;25.60;58.36
25526;BME280;13424;48.424;11.258;2023-05-22T09:51:21;95325.59;;;26.82;54.21
25526;BME280;13424;48.424;11.258;2023-05-22T09:53:59;95322.28;;;24.65;58.12
25526;BME280;13424;48.424;11.258;2023-05-22T09:56:27;95324.41;;;25.75;58.27
25526;BME280;13424;48.424;11.258;2023-05-22T09:58:55;95320.94;;;23.88;59.53
25526;BME280;13424;48.424;11.258;2023-05-22T10:01:23;95327.75;;;24.44;60.44
25526;BME280;13424;48.424;11.258;2023-05-22T10:03:50;95321.75;;;25.42;57.97
25526;BME280;13424;48.424;11.258;2023-05-22T10:06:18;95321.19;;;26.09;57.00
25526;BME280;13424;48.424;11.258;2023-05-22T10:08:55;95324.97;;;27.17;54.95
25526;BME280;13424;48.424;11.258;2023-05-22T10:11:24;95331.81;;;24.17;59.33
25526;BME280;13424;48.424;11.258;2023-05-22T10:13:50;95331.53;;;25.67;60.33
25526;BME280;13424;48.424;11.258;2023-05-22T10:16:16;95332.34;;;27.00;52.49
25526;BME280;13424;48.424;11.258;2023-05-22T10:18:44;95329.97;;;26.55;57.20
25526;BME280;13424;48.424;11.258;2023-05-22T10:21:11;95332.69;;;26.99;56.12
25526;BME280;13424;48.424;11.258;2023-05-22T10:23:38;95329.22;;;27.77;53.62
25526;BME280;13424;48.424;11.258;2023-05-22T10:26:04;95328.50;;;27.49;54.33
25526;BME280;13424;48.424;11.258;2023-05-22T10:28:44;95332.75;;;28.29;51.57
25526;BME280;13424;48.424;11.258;2023-05-22T10:31:45;95327.72;;;28.70;51.66
25526;BME280;13424;48.424;11.258;2023-05-22T10:34:58;95323.59;;;26.95;53.75
25526;BME280;13424;48.424;11.258;2023-05-22T10:37:41;95326.94;;;26.88;53.94
25526;BME280;13424;48.424;11.258;2023-05-22T10:40:13;95321.91;;;27.66;54.37
25526;BME280;13424;48.424;11.258;2023-05-22T10:42:42;95329.22;;;28.48;53.16
25526;BME280;13424;48.424;11.258;2023-05-22T10:45:18;95318.84;;;28.02;52.78
25526;BME280;13424;48.424;11.258;2023-05-22T10:47:44;95317.91;;;28.69;51.75
25526;BME280;13424;48.424;11.258;2023-05-22T10:50:11;95323.25;;;28.61;51.56
25526;BME280;13424;48.424;11.258;2023-05-22T10:52:38;95313.41;;;27.71;52.15
25526;BME280;13424;48.424;11.258;2023-05-22T10:55:13;95310.81;;;28.48;49.12
25526;BME280;13424;48.424;11.258;2023-05-22T10:57:41;95314.31;;;28.45;52.04
25526;BME280;13424;48.424;11.258;2023-05-22T11:00:11;95309.06;;;28.98;49.76
25526;BME280;13424;48.424;11.258;2023-05-22T11:02:43;95311.00;;;27.85;52.38
25526;BME280;13424;48.424;11.258;2023-05-22T11:07:48;95305.63;;;28.43;52.76
25526;BME280;13424;48.424;11.258;2023-05-22T11:10:14;95301.75;;;27.74;56.82
25526;BME280;13424;48.424;11.258;2023-05-22T11:13:02;95300.09;;;29.70;50.95
25526;BME280;13424;48.424;11.258;2023-05-22T11:15:45;95303.41;;;29.10;50.49
25526;BME280;13424;48.424;11.258;2023-05-22T11:18:11;95299.97;;;28.75;50.69
25526;BME280;13424;48.424;11.258;2023-05-22T11:20:47;95299.22;;;29.89;49.85
25526;BME280;13424;48.424;11.258;2023-05-22T11:23:13;95300.00;;;28.94;51.53
25526;BME280;13424;48.424;11.258;2023-05-22T11:25:40;95293.94;;;29.31;50.23
25526;BME280;13424;48.424;11.258;2023-05-22T11:28:06;95287.34;;;29.55;49.85
25526;BME280;13424;48.424;11.258;2023-05-22T11:30:35;95294.38;;;29.10;48.47
25526;BME280;13424;48.424;11.258;2023-05-22T11:33:01;95282.72;;;29.89;47.83
25526;BME280;13424;48.424;11.258;2023-05-22T11:35:27;95297.13;;;29.10;50.23
25526;BME280;13424;48.424;11.258;2023-05-22T11:37:54;95281.34;;;30.28;49.30
25526;BME280;13424;48.424;11.258;2023-05-22T11:40:22;95285.78;;;29.57;50.41
25526;BME280;13424;48.424;11.258;2023-05-22T11:42:54;95284.31;;;30.16;50.31
25526;BME280;13424;48.424;11.258;2023-05-22T11:45:20;95286.22;;;30.12;47.65
25526;BME280;13424;48.424;11.258;2023-05-22T11:47:46;95281.91;;;30.11;48.75
25526;BME280;13424;48.424;11.258;2023-05-22T11:50:13;95276.31;;;30.08;48.51
25526;BME280;13424;48.424;11.258;2023-05-22T11:52:42;95278.06;;;30.19;47.69
25526;BME280;13424;48.424;11.258;2023-05-22T11:55:11;95276.50;;;29.65;48.25
25526;BME280;13424;48.424;11.258;2023-05-22T11:57:37;95274.91;;;29.64;49.18
25526;BME280;13424;48.424;11.258;2023-05-22T12:00:04;95271.53;;;30.65;47.25
25526;BME280;13424;48.424;11.258;2023-05-22T12:02:37;95272.31;;;30.32;46.09
25526;BME280;13424;48.424;11.258;2023-05-22T12:05:03;95275.41;;;30.00;47.85
25526;BME280;13424;48.424;11.258;2023-05-22T12:07:29;95267.25;;;30.34;49.48
25526;BME280;13424;48.424;11.258;2023-05-22T12:09:56;95270.63;;;28.98;47.22
25526;BME280;13424;48.424;11.258;2023-05-22T12:12:22;95266.94;;;29.10;47.75
25526;BME280;13424;48.424;11.258;2023-05-22T12:14:48;95263.75;;;30.70;47.77
25526;BME280;13424;48.424;11.258;2023-05-22T12:17:16;95269.47;;;30.24;45.98
25526;BME280;13424;48.424;11.258;2023-05-22T12:19:42;95263.06;;;30.80;46.03
25526;BME280;13424;48.424;11.258;2023-05-22T12:22:09;95263.25;;;26.60;50.99
25526;BME280;13424;48.424;11.258;2023-05-22T12:24:39;95260.91;;;28.39;48.85
25526;BME280;13424;48.424;11.258;2023-05-22T12:27:08;95256.19;;;29.73;47.60
25526;BME280;13424;48.424;11.258;2023-05-22T12:29:38;95255.56;;;29.84;47.59
25526;BME280;13424;48.424;11.258;2023-05-22T12:32:07;95265.22;;;30.64;44.48
25526;BME280;13424;48.424;11.258;2023-05-22T12:34:47;95258.25;;;30.70;44.89
25526;BME280;13424;48.424;11.258;2023-05-22T12:37:24;95249.63;;;30.08;47.10
25526;BME280;13424;48.424;11.258;2023-05-22T12:40:02;95254.28;;;30.04;47.32
25526;BME280;13424;48.424;11.258;2023-05-22T12:42:28;95252.56;;;29.66;46.66
25526;BME280;13424;48.424;11.258;2023-05-22T12:44:56;95251.41;;;30.23;48.50
25526;BME280;13424;48.424;11.258;2023-05-22T12:47:23;95245.09;;;27.78;48.62
25526;BME280;13424;48.424;11.258;2023-05-22T12:49:49;95249.47;;;28.18;50.05
25526;BME280;13424;48.424;11.258;2023-05-22T12:52:15;95242.28;;;29.13;47.49
25526;BME280;13424;48.424;11.258;2023-05-22T12:54:41;95243.81;;;30.47;44.23
25526;BME280;13424;48.424;11.258;2023-05-22T12:57:07;95242.53;;;31.11;43.98
25526;BME280;13424;48.424;11.258;2023-05-22T12:59:33;95246.03;;;31.05;44.76
25526;BME280;13424;48.424;11.258;2023-05-22T13:02:04;95239.75;;;30.34;44.68
25526;BME280;13424;48.424;11.258;2023-05-22T13:04:39;95241.16;;;28.72;46.35
25526;BME280;13424;48.424;11.258;2023-05-22T13:07:05;95235.38;;;27.65;47.30
25526;BME280;13424;48.424;11.258;2023-05-22T13:09:30;95236.31;;;30.10;44.21
25526;BME280;13424;48.424;11.258;2023-05-22T13:11:56;95237.66;;;30.23;43.40
25526;BME280;13424;48.424;11.258;2023-05-22T13:14:22;95237.34;;;31.03;44.14
25526;BME280;13424;48.424;11.258;2023-05-22T13:16:48;95235.91;;;30.75;43.00
25526;BME280;13424;48.424;11.258;2023-05-22T13:22:59;95232.28;;;31.05;43.56
25526;BME280;13424;48.424;11.258;2023-05-22T13:25:25;95222.19;;;29.85;47.30
25526;BME280;13424;48.424;11.258;2023-05-22T13:27:51;95229.41;;;30.23;44.36
25526;BME280;13424;48.424;11.258;2023-05-22T13:30:17;95220.03;;;29.98;44.42
25526;BME280;13424;48.424;11.258;2023-05-22T13:32:43;95229.78;;;31.33;44.99
25526;BME280;13424;48.424;11.258;2023-05-22T13:35:09;95227.63;;;31.16;41.73
25526;BME280;13424;48.424;11.258;2023-05-22T13:37:35;95225.47;;;30.92;43.93
25526;BME280;13424;48.424;11.258;2023-05-22T13:40:00;95226.84;;;31.67;42.32
25526;BME280;13424;48.424;11.258;2023-05-22T13:42:26;95224.09;;;28.40;46.27